Time;durP1;ratioP1;P1;durP2;ratioP2;P2;SDS_P1;SDS_P2;PMS_P1;PMS_P2;Temp;Humidity;BMP_temperature;BMP_pressure;BME280_temperature;BME280_humidity;BME280_pressure;Samples;Min_cycle;Max_cycle;Signal;HPM_P1;HPM_P2
2022/04/17 00:00:57;;;;;;;2.50;2.30;;;;;;;;;;5020897;28;20702;-62
2022/04/17 00:03:44;;;;;;;2.43;2.33;;;;;;;;;;5017445;28;20201;-61
2022/04/17 00:06:30;;;;;;;2.57;2.40;;;;;;;;;;5024347;28;20326;-64
2022/04/17 00:09:19;;;;;;;2.30;2.20;;;;;;;;;;5016738;28;20235;-61
2022/04/17 00:12:07;;;;;;;2.10;2.00;;;;;;;;;;5024665;28;20227;-61
2022/04/17 00:14:55;;;;;;;3.10;2.37;;;;;;;;;;5020556;28;20309;-62
2022/04/17 00:17:43;;;;;;;2.33;2.23;;;;;;;;;;5025128;28;20207;-62
2022/04/17 00:20:30;;;;;;;2.63;2.20;;;;;;;;;;5020965;28;20212;-62
2022/04/17 00:23:17;;;;;;;2.10;2.00;;;;;;;;;;5024049;28;20685;-62
2022/04/17 00:26:05;;;;;;;2.53;2.33;;;;;;;;;;5021473;28;20301;-61
2022/04/17 00:28:52;;;;;;;2.10;2.00;;;;;;;;;;5022089;28;20212;-61
2022/04/17 00:31:39;;;;;;;2.37;2.27;;;;;;;;;;5018464;28;20559;-62
2022/04/17 00:34:26;;;;;;;2.10;2.00;;;;;;;;;;5023882;28;20356;-60
2022/04/17 00:37:13;;;;;;;2.00;1.90;;;;;;;;;;5024021;28;20219;-61
2022/04/17 00:40:01;;;;;;;2.00;1.90;;;;;;;;;;5024322;28;20286;-61
2022/04/17 00:42:49;;;;;;;2.10;2.00;;;;;;;;;;5026730;28;20252;-61
2022/04/17 00:45:36;;;;;;;2.30;2.20;;;;;;;;;;5023984;28;20527;-62
2022/04/17 00:48:23;;;;;;;2.27;2.07;;;;;;;;;;5022393;28;20321;-61
2022/04/17 00:51:10;;;;;;;2.50;2.20;;;;;;;;;;5020140;28;20282;-62
2022/04/17 00:53:58;;;;;;;2.30;2.10;;;;;;;;;;5021996;28;20701;-62
2022/04/17 00:56:45;;;;;;;2.27;2.07;;;;;;;;;;5020576;28;20209;-67
2022/04/17 00:59:34;;;;;;;2.20;2.10;;;;;;;;;;5020673;28;20286;-61
2022/04/17 01:02:21;;;;;;;2.10;2.00;;;;;;;;;;5018416;28;20302;-61
2022/04/17 01:05:08;;;;;;;2.10;2.00;;;;;;;;;;5018141;28;20724;-61
2022/04/17 01:07:55;;;;;;;2.27;2.07;;;;;;;;;;5019579;28;20294;-61
2022/04/17 01:10:42;;;;;;;2.13;2.03;;;;;;;;;;5021891;28;20683;-61
2022/04/17 01:13:30;;;;;;;2.00;1.90;;;;;;;;;;5019801;28;20324;-61
2022/04/17 01:16:18;;;;;;;2.10;2.00;;;;;;;;;;5018473;28;20296;-61
2022/04/17 01:19:11;;;;;;;2.27;2.10;;;;;;;;;;5022977;28;20377;-61
2022/04/17 01:21:59;;;;;;;2.13;2.03;;;;;;;;;;5020522;28;20668;-61
2022/04/17 01:27:51;;;;;;;2.10;2.00;;;;;;;;;;5019432;28;20320;-61
2022/04/17 01:30:40;;;;;;;2.10;1.87;;;;;;;;;;5021281;28;20341;-61
2022/04/17 01:33:30;;;;;;;2.20;2.10;;;;;;;;;;5022589;28;20705;-62
2022/04/17 01:36:17;;;;;;;2.00;1.90;;;;;;;;;;5020237;28;20288;-61
2022/04/17 01:39:05;;;;;;;2.00;1.90;;;;;;;;;;5018666;28;20231;-62
2022/04/17 01:41:54;;;;;;;2.20;2.10;;;;;;;;;;5019511;28;20247;-61
2022/04/17 01:44:41;;;;;;;2.20;2.10;;;;;;;;;;5023902;28;20318;-61
2022/04/17 01:47:28;;;;;;;2.10;2.00;;;;;;;;;;5017520;28;20283;-62
2022/04/17 01:50:15;;;;;;;2.30;2.20;;;;;;;;;;5020380;28;20214;-61
2022/04/17 01:53:03;;;;;;;2.30;2.20;;;;;;;;;;5021439;28;20694;-60
2022/04/17 01:55:51;;;;;;;2.20;2.10;;;;;;;;;;5014383;28;20300;-61
2022/04/17 01:58:38;;;;;;;2.20;2.10;;;;;;;;;;5021043;28;20268;-63
2022/04/17 02:01:25;;;;;;;2.40;2.30;;;;;;;;;;5020698;28;20533;-60
2022/04/17 02:04:13;;;;;;;2.30;2.20;;;;;;;;;;5022625;28;20211;-62
2022/04/17 02:07:00;;;;;;;2.10;2.00;;;;;;;;;;5017750;28;20220;-62
2022/04/17 02:09:47;;;;;;;2.30;2.10;;;;;;;;;;5022306;28;20310;-62
2022/04/17 02:12:35;;;;;;;2.10;2.00;;;;;;;;;;5022062;28;20954;-61
2022/04/17 02:15:22;;;;;;;2.30;2.20;;;;;;;;;;5030083;28;20237;-61
2022/04/17 02:18:10;;;;;;;2.50;2.40;;;;;;;;;;5022448;28;20739;-62
2022/04/17 02:20:57;;;;;;;2.40;2.20;;;;;;;;;;5022527;28;20737;-61
2022/04/17 02:23:45;;;;;;;2.27;2.17;;;;;;;;;;5022378;28;20211;-61
2022/04/17 02:26:32;;;;;;;2.27;2.17;;;;;;;;;;5023054;28;20293;-62
2022/04/17 02:29:21;;;;;;;2.47;2.33;;;;;;;;;;5023532;28;20243;-60
2022/04/17 02:32:09;;;;;;;2.13;2.03;;;;;;;;;;5024459;28;20238;-61
2022/04/17 02:34:56;;;;;;;2.40;2.30;;;;;;;;;;5024253;28;20254;-61
2022/04/17 02:37:43;;;;;;;2.13;2.03;;;;;;;;;;5021986;28;20296;-60
2022/04/17 02:40:29;;;;;;;2.50;2.37;;;;;;;;;;5026420;28;20341;-62
2022/04/17 02:43:16;;;;;;;2.13;2.03;;;;;;;;;;5022088;28;20214;-61
2022/04/17 02:46:05;;;;;;;2.70;2.50;;;;;;;;;;5025962;28;20317;-61
2022/04/17 02:48:52;;;;;;;2.23;2.13;;;;;;;;;;5024868;28;20340;-61
2022/04/17 02:51:39;;;;;;;2.03;1.93;;;;;;;;;;5020674;28;20337;-61
2022/04/17 02:54:26;;;;;;;2.30;2.20;;;;;;;;;;5025027;28;20334;-62
2022/04/17 02:57:13;;;;;;;2.23;2.10;;;;;;;;;;5025654;28;20344;-61
2022/04/17 03:00:00;;;;;;;2.30;2.20;;;;;;;;;;5017389;28;20223;-61
2022/04/17 03:05:53;;;;;;;2.33;2.23;;;;;;;;;;5024702;28;20650;-61
2022/04/17 03:08:41;;;;;;;2.10;2.00;;;;;;;;;;5022506;28;20306;-61
2022/04/17 03:11:28;;;;;;;2.47;2.30;;;;;;;;;;5026364;28;20246;-61
2022/04/17 03:14:16;;;;;;;2.47;2.27;;;;;;;;;;5021127;28;20361;-61
2022/04/17 03:17:04;;;;;;;2.07;1.97;;;;;;;;;;5021512;28;20225;-62
2022/04/17 03:19:52;;;;;;;2.20;2.10;;;;;;;;;;5019483;28;20211;-61
2022/04/17 03:22:41;;;;;;;2.50;2.40;;;;;;;;;;5022258;28;20489;-61
2022/04/17 03:25:29;;;;;;;2.30;2.20;;;;;;;;;;5022762;28;20683;-61
2022/04/17 03:28:16;;;;;;;2.60;2.50;;;;;;;;;;5026395;28;20215;-61
2022/04/17 03:31:04;;;;;;;2.23;2.13;;;;;;;;;;5022863;28;20286;-63
2022/04/17 03:33:51;;;;;;;2.13;2.03;;;;;;;;;;5022996;28;20209;-62
2022/04/17 03:36:40;;;;;;;2.03;1.93;;;;;;;;;;5024001;28;20212;-61
2022/04/17 03:39:27;;;;;;;2.23;2.13;;;;;;;;;;5025434;28;20211;-60
2022/04/17 03:42:15;;;;;;;2.37;2.20;;;;;;;;;;5025051;28;20242;-61
2022/04/17 03:45:02;;;;;;;2.17;2.07;;;;;;;;;;5024724;28;20207;-61
2022/04/17 03:47:49;;;;;;;2.17;2.07;;;;;;;;;;5018326;28;20230;-61
2022/04/17 03:50:36;;;;;;;2.40;2.27;;;;;;;;;;5023992;28;20253;-61
2022/04/17 03:53:24;;;;;;;2.07;1.97;;;;;;;;;;5024404;28;20679;-62
2022/04/17 03:56:11;;;;;;;2.17;2.07;;;;;;;;;;5023209;28;20211;-61
2022/04/17 03:58:58;;;;;;;2.20;2.10;;;;;;;;;;5022827;28;20215;-61
2022/04/17 04:01:46;;;;;;;2.10;2.00;;;;;;;;;;5023875;28;20591;-61
2022/04/17 04:04:33;;;;;;;2.10;2.00;;;;;;;;;;5024517;28;20665;-62
2022/04/17 04:07:20;;;;;;;2.20;2.10;;;;;;;;;;5021488;28;20214;-61
2022/04/17 04:10:09;;;;;;;2.10;2.00;;;;;;;;;;5020492;28;20566;-61
2022/04/17 04:12:56;;;;;;;2.27;2.17;;;;;;;;;;5023368;28;20714;-62
2022/04/17 04:15:43;;;;;;;2.37;2.27;;;;;;;;;;5021815;28;20305;-61
2022/04/17 04:18:30;;;;;;;2.60;2.40;;;;;;;;;;5023256;28;20298;-61
2022/04/17 04:21:17;;;;;;;2.23;2.13;;;;;;;;;;5021848;28;20216;-61
2022/04/17 04:24:05;;;;;;;2.13;2.03;;;;;;;;;;5022182;28;20293;-61
2022/04/17 04:29:54;;;;;;;2.50;2.40;;;;;;;;;;5023412;28;20208;-61
2022/04/17 04:32:52;;;;;;;2.80;2.60;;;;;;;;;;5022238;28;20238;-61
2022/04/17 04:35:39;;;;;;;2.43;2.30;;;;;;;;;;5021343;28;20594;-61
2022/04/17 04:38:26;;;;;;;2.40;2.20;;;;;;;;;;5019693;28;20246;-61
2022/04/17 04:41:12;;;;;;;2.53;2.43;;;;;;;;;;5027079;28;20707;-61
2022/04/17 04:44:01;;;;;;;2.43;2.23;;;;;;;;;;5022692;28;20283;-61
2022/04/17 04:46:46;;;;;;;2.47;2.30;;;;;;;;;;5024352;28;20294;-62
2022/04/17 04:49:33;;;;;;;2.30;2.20;;;;;;;;;;5020906;28;20208;-62
2022/04/17 04:52:21;;;;;;;2.97;2.60;;;;;;;;;;5020130;28;20325;-61
2022/04/17 04:55:09;;;;;;;2.93;2.73;;;;;;;;;;5021056;28;20227;-62
2022/04/17 04:57:56;;;;;;;2.57;2.37;;;;;;;;;;5018256;28;20406;-62
2022/04/17 05:00:44;;;;;;;2.50;2.40;;;;;;;;;;5021331;28;20742;-62
2022/04/17 05:03:31;;;;;;;2.90;2.70;;;;;;;;;;5018500;28;20758;-61
2022/04/17 05:06:18;;;;;;;2.83;2.63;;;;;;;;;;5019280;28;20284;-61
2022/04/17 05:09:05;;;;;;;2.53;2.43;;;;;;;;;;5025235;28;20244;-62
2022/04/17 05:11:52;;;;;;;2.73;2.63;;;;;;;;;;5016771;28;20235;-61
2022/04/17 05:14:41;;;;;;;3.00;2.70;;;;;;;;;;5024102;28;20298;-61
2022/04/17 05:17:29;;;;;;;3.20;2.90;;;;;;;;;;5016858;28;20211;-61
2022/04/17 05:20:17;;;;;;;3.20;2.80;;;;;;;;;;5022426;28;20631;-62
2022/04/17 05:23:15;;;;;;;3.00;2.80;;;;;;;;;;5022409;28;20212;-61
2022/04/17 05:26:04;;;;;;;3.10;2.90;;;;;;;;;;5019271;28;20213;-62
2022/04/17 05:28:52;;;;;;;3.10;2.93;;;;;;;;;;5020132;28;20213;-62
2022/04/17 05:31:39;;;;;;;3.00;2.80;;;;;;;;;;5017583;28;20581;-61
2022/04/17 05:34:28;;;;;;;3.33;3.13;;;;;;;;;;5020838;28;20310;-61
2022/04/17 05:37:15;;;;;;;3.03;2.83;;;;;;;;;;5021110;28;20346;-61
2022/04/17 05:40:03;;;;;;;3.13;2.93;;;;;;;;;;5019953;28;20217;-61
2022/04/17 05:42:50;;;;;;;3.03;2.90;;;;;;;;;;5019713;28;20215;-60
2022/04/17 05:45:38;;;;;;;2.93;2.77;;;;;;;;;;5021032;28;20256;-61
2022/04/17 05:48:25;;;;;;;2.70;2.60;;;;;;;;;;5028221;28;20732;-62
2022/04/17 05:51:13;;;;;;;3.20;3.00;;;;;;;;;;5022737;28;20790;-62
2022/04/17 05:54:01;;;;;;;3.20;3.00;;;;;;;;;;5028084;28;20350;-62
2022/04/17 05:56:48;;;;;;;2.93;2.80;;;;;;;;;;5025169;28;20590;-62
2022/04/17 05:59:36;;;;;;;3.07;2.87;;;;;;;;;;5022942;28;20508;-62
2022/04/17 06:02:23;;;;;;;3.00;2.80;;;;;;;;;;5022788;28;20208;-61
2022/04/17 06:05:11;;;;;;;2.93;2.83;;;;;;;;;;5020326;28;20224;-62
2022/04/17 06:07:59;;;;;;;2.50;2.40;;;;;;;;;;5024504;28;20277;-60
2022/04/17 06:10:46;;;;;;;2.90;2.80;;;;;;;;;;5023845;28;20209;-60
2022/04/17 06:13:33;;;;;;;3.10;2.90;;;;;;;;;;5025753;28;20685;-60
2022/04/17 06:16:20;;;;;;;2.50;2.40;;;;;;;;;;5025309;28;20632;-60
2022/04/17 06:19:09;;;;;;;2.80;2.70;;;;;;;;;;5022041;28;20264;-61
2022/04/17 06:21:56;;;;;;;2.50;2.40;;;;;;;;;;5024511;28;20707;-60
2022/04/17 06:24:44;;;;;;;2.97;2.77;;;;;;;;;;5023363;28;20291;-60
2022/04/17 06:27:37;;;;;;;2.83;2.63;;;;;;;;;;5023035;28;20350;-60
2022/04/17 06:30:24;;;;;;;2.70;2.60;;;;;;;;;;5027419;28;20235;-60
2022/04/17 06:33:11;;;;;;;2.60;2.50;;;;;;;;;;5026661;28;20244;-61
2022/04/17 06:35:58;;;;;;;2.63;2.53;;;;;;;;;;5022358;28;20312;-60
2022/04/17 06:38:45;;;;;;;2.67;2.57;;;;;;;;;;5023742;28;20293;-61
2022/04/17 06:41:33;;;;;;;2.60;2.50;;;;;;;;;;5028215;28;20309;-61
2022/04/17 06:44:20;;;;;;;2.60;2.50;;;;;;;;;;5025902;28;20836;-60
2022/04/17 06:47:07;;;;;;;2.43;2.33;;;;;;;;;;5022917;28;20294;-61
2022/04/17 06:49:54;;;;;;;2.70;2.60;;;;;;;;;;5023802;28;20300;-61
2022/04/17 06:52:41;;;;;;;2.47;2.22;;;;;;;;;;5020064;28;20330;-61
2022/04/17 06:55:27;;;;;;;2.70;2.60;;;;;;;;;;5023321;28;20346;-61
2022/04/17 06:58:17;;;;;;;2.22;2.13;;;;;;;;;;5026380;28;20250;-61
2022/04/17 07:01:04;;;;;;;2.10;2.00;;;;;;;;;;5026954;28;20584;-58
2022/04/17 07:03:51;;;;;;;2.30;2.20;;;;;;;;;;5022631;28;20236;-59
2022/04/17 07:06:38;;;;;;;2.30;2.20;;;;;;;;;;5025558;28;20292;-60
2022/04/17 07:09:24;;;;;;;2.33;2.20;;;;;;;;;;5020875;28;20258;-59
2022/04/17 07:12:11;;;;;;;2.47;2.38;;;;;;;;;;5024951;28;20295;-57
2022/04/17 07:15:00;;;;;;;2.10;2.00;;;;;;;;;;5020836;28;20209;-58
2022/04/17 07:17:47;;;;;;;2.03;1.92;;;;;;;;;;5022986;28;20241;-59
2022/04/17 07:20:35;;;;;;;2.35;2.25;;;;;;;;;;5024297;28;20737;-59
2022/04/17 07:23:22;;;;;;;2.00;1.90;;;;;;;;;;5021497;28;20217;-59
2022/04/17 07:26:09;;;;;;;2.05;1.95;;;;;;;;;;5023001;28;20225;-59
2022/04/17 07:28:56;;;;;;;1.70;1.70;;;;;;;;;;5023631;28;20255;-59
2022/04/17 07:31:44;;;;;;;1.88;1.77;;;;;;;;;;5020675;28;20247;-58
2022/04/17 07:34:31;;;;;;;1.73;1.67;;;;;;;;;;5024243;28;20291;-59
2022/04/17 07:37:25;;;;;;;2.10;2.00;;;;;;;;;;5025135;28;20236;-59
2022/04/17 07:40:15;;;;;;;1.30;1.30;;;;;;;;;;5022628;28;20221;-59
2022/04/17 07:43:04;;;;;;;1.75;1.65;;;;;;;;;;5023902;28;20200;-60
2022/04/17 07:45:51;;;;;;;1.90;1.80;;;;;;;;;;5025334;28;20269;-60
2022/04/17 07:48:40;;;;;;;1.58;1.58;;;;;;;;;;5021325;28;20201;-60
2022/04/17 07:51:27;;;;;;;1.42;1.42;;;;;;;;;;5022429;28;20747;-60
2022/04/17 07:54:13;;;;;;;1.83;1.80;;;;;;;;;;5025453;28;20327;-61
2022/04/17 07:57:01;;;;;;;1.42;1.42;;;;;;;;;;5019880;28;20233;-60
2022/04/17 07:59:50;;;;;;;1.48;1.48;;;;;;;;;;5020488;28;20200;-60
2022/04/17 08:02:50;;;;;;;1.63;1.52;;;;;;;;;;5022330;28;20208;-60
2022/04/17 08:05:39;;;;;;;1.50;1.50;;;;;;;;;;5016716;28;20231;-60
2022/04/17 08:08:26;;;;;;;1.48;1.48;;;;;;;;;;5022779;28;20216;-61
2022/04/17 08:11:13;;;;;;;1.55;1.52;;;;;;;;;;5019888;28;20801;-60
2022/04/17 08:14:00;;;;;;;1.50;1.40;;;;;;;;;;5020750;28;20239;-61
2022/04/17 08:16:47;;;;;;;1.20;1.20;;;;;;;;;;5018563;28;20240;-60
2022/04/17 08:19:35;;;;;;;1.08;1.08;;;;;;;;;;5024394;28;20236;-58
2022/04/17 08:22:23;;;;;;;1.27;1.23;;;;;;;;;;5017396;28;20948;-58
2022/04/17 08:25:10;;;;;;;0.85;0.85;;;;;;;;;;5020115;28;20660;-58
2022/04/17 08:27:57;;;;;;;1.10;1.10;;;;;;;;;;5019989;28;20772;-57
2022/04/17 08:30:44;;;;;;;1.08;1.08;;;;;;;;;;5020518;28;20219;-58
2022/04/17 08:33:32;;;;;;;1.00;1.00;;;;;;;;;;5020530;28;20254;-58
2022/04/17 08:36:19;;;;;;;1.20;1.20;;;;;;;;;;5021830;28;20311;-60
2022/04/17 08:39:07;;;;;;;0.95;0.90;;;;;;;;;;5022040;28;20283;-59
2022/04/17 08:41:55;;;;;;;1.15;1.15;;;;;;;;;;5022315;28;20211;-58
2022/04/17 08:44:42;;;;;;;0.80;0.80;;;;;;;;;;5018087;28;20213;-58
2022/04/17 08:47:29;;;;;;;1.20;1.20;;;;;;;;;;5022455;28;20201;-59
2022/04/17 08:50:17;;;;;;;0.85;0.85;;;;;;;;;;5024857;28;20354;-60
2022/04/17 08:53:06;;;;;;;0.98;0.98;;;;;;;;;;5020596;28;20320;-60
2022/04/17 08:55:54;;;;;;;0.60;0.60;;;;;;;;;;5015469;28;20830;-59
2022/04/17 08:58:41;;;;;;;0.90;0.90;;;;;;;;;;5026530;28;20595;-60
2022/04/17 09:01:29;;;;;;;1.05;1.05;;;;;;;;;;5016855;28;20574;-61
2022/04/17 09:04:16;;;;;;;0.70;0.70;;;;;;;;;;5019224;28;20333;-60
2022/04/17 09:07:04;;;;;;;0.88;0.88;;;;;;;;;;5017907;28;20689;-60
2022/04/17 09:09:52;;;;;;;0.80;0.80;;;;;;;;;;5017734;28;20245;-61
2022/04/17 09:12:46;;;;;;;0.75;0.70;;;;;;;;;;5021666;28;20297;-62
2022/04/17 09:15:34;;;;;;;0.80;0.80;;;;;;;;;;5019408;28;20210;-61
2022/04/17 09:18:21;;;;;;;0.75;0.75;;;;;;;;;;5019358;28;20299;-61
2022/04/17 09:21:08;;;;;;;0.80;0.80;;;;;;;;;;5020674;28;20276;-61
2022/04/17 09:23:55;;;;;;;0.70;0.70;;;;;;;;;;5019004;28;20298;-61
2022/04/17 09:26:49;;;;;;;0.80;0.80;;;;;;;;;;5022439;28;20204;-60
2022/04/17 09:29:39;;;;;;;0.70;0.70;;;;;;;;;;5021069;28;20693;-61
2022/04/17 09:32:29;;;;;;;0.60;0.60;;;;;;;;;;5019103;28;20295;-61
2022/04/17 09:35:16;;;;;;;0.50;0.50;;;;;;;;;;5020876;28;20335;-60
2022/04/17 09:38:05;;;;;;;0.85;0.85;;;;;;;;;;5022066;28;20835;-60
2022/04/17 09:40:52;;;;;;;0.80;0.80;;;;;;;;;;5018258;28;20263;-63
2022/04/17 09:43:39;;;;;;;0.73;0.73;;;;;;;;;;5021654;28;20220;-61
2022/04/17 09:46:27;;;;;;;0.70;0.70;;;;;;;;;;5021536;28;20291;-61
2022/04/17 09:49:14;;;;;;;0.60;0.60;;;;;;;;;;5021564;28;20276;-60
2022/04/17 09:52:10;;;;;;;0.60;0.60;;;;;;;;;;5019337;28;20315;-61
2022/04/17 09:54:57;;;;;;;0.80;0.80;;;;;;;;;;5026267;28;20308;-61
2022/04/17 09:57:44;;;;;;;0.80;0.80;;;;;;;;;;5017159;28;20286;-61
2022/04/17 10:00:41;;;;;;;0.50;0.50;;;;;;;;;;5021074;28;20339;-61
2022/04/17 10:03:30;;;;;;;0.50;0.50;;;;;;;;;;5018967;28;20299;-62
2022/04/17 10:06:18;;;;;;;0.47;0.47;;;;;;;;;;5014572;28;20345;-61
2022/04/17 10:09:05;;;;;;;0.80;0.80;;;;;;;;;;5017458;28;20329;-62
2022/04/17 10:11:56;;;;;;;0.70;0.70;;;;;;;;;;5021862;28;20694;-61
2022/04/17 10:14:44;;;;;;;0.60;0.60;;;;;;;;;;5020667;28;20575;-61
2022/04/17 10:17:32;;;;;;;0.40;0.40;;;;;;;;;;5019333;28;20235;-65
2022/04/17 10:20:21;;;;;;;0.77;0.70;;;;;;;;;;5019822;28;20208;-61
2022/04/17 10:23:10;;;;;;;0.73;0.73;;;;;;;;;;5019701;28;20211;-62
2022/04/17 10:25:58;;;;;;;0.45;0.45;;;;;;;;;;5019719;28;20723;-61
2022/04/17 10:28:50;;;;;;;0.63;0.63;;;;;;;;;;5021332;28;20218;-61
2022/04/17 10:31:47;;;;;;;0.95;0.95;;;;;;;;;;5017321;28;20231;-60
2022/04/17 10:35:10;;;;;;;1.00;1.00;;;;;;;;;;5021073;28;20775;-61
2022/04/17 10:38:25;;;;;;;1.08;1.00;;;;;;;;;;5016723;28;20251;-61
2022/04/17 10:41:13;;;;;;;0.88;0.88;;;;;;;;;;5019403;28;20242;-61
2022/04/17 10:44:03;;;;;;;1.00;1.00;;;;;;;;;;5025632;28;20202;-61
2022/04/17 10:46:51;;;;;;;1.23;1.23;;;;;;;;;;5019343;28;20686;-61
2022/04/17 10:49:53;;;;;;;1.37;0.97;;;;;;;;;;5023721;28;20697;-61
2022/04/17 10:52:41;;;;;;;1.02;1.02;;;;;;;;;;5018082;28;20638;-61
2022/04/17 10:55:30;;;;;;;1.20;1.20;;;;;;;;;;5024075;28;20570;-62
2022/04/17 10:58:17;;;;;;;1.13;1.13;;;;;;;;;;5024692;28;20217;-61
2022/04/17 11:01:04;;;;;;;1.08;1.05;;;;;;;;;;5020529;28;20235;-61
2022/04/17 11:03:52;;;;;;;0.90;0.90;;;;;;;;;;5024263;28;20651;-61
2022/04/17 11:06:39;;;;;;;0.75;0.75;;;;;;;;;;5024291;28;20219;-61
2022/04/17 11:09:26;;;;;;;1.00;1.00;;;;;;;;;;5019538;28;20246;-61
2022/04/17 11:12:27;;;;;;;1.15;1.15;;;;;;;;;;5022910;28;20209;-60
2022/04/17 11:15:27;;;;;;;1.00;1.00;;;;;;;;;;5020084;28;20227;-59
2022/04/17 11:18:20;;;;;;;1.00;1.00;;;;;;;;;;5015482;28;20218;-60
2022/04/17 11:21:10;;;;;;;1.25;1.25;;;;;;;;;;5019889;28;20215;-61
2022/04/17 11:24:01;;;;;;;1.57;1.47;;;;;;;;;;5021139;28;20606;-60
2022/04/17 11:27:10;;;;;;;1.17;1.17;;;;;;;;;;5025530;28;20210;-60
2022/04/17 11:29:59;;;;;;;1.27;1.27;;;;;;;;;;5024953;28;20447;-60
2022/04/17 11:32:49;;;;;;;1.45;1.45;;;;;;;;;;5019610;28;20679;-61
2022/04/17 11:35:36;;;;;;;1.60;1.50;;;;;;;;;;5022338;28;20212;-60
2022/04/17 11:38:23;;;;;;;1.97;1.87;;;;;;;;;;5027254;28;20298;-59
2022/04/17 11:41:11;;;;;;;1.80;1.70;;;;;;;;;;5024838;28;20284;-60
2022/04/17 11:43:59;;;;;;;1.60;1.50;;;;;;;;;;5022621;28;20942;-59
2022/04/17 11:46:47;;;;;;;1.40;1.40;;;;;;;;;;5026027;28;20250;-60
2022/04/17 11:49:39;;;;;;;1.33;1.30;;;;;;;;;;5023559;28;20293;-61
2022/04/17 11:52:26;;;;;;;1.20;1.20;;;;;;;;;;5023480;28;20365;-60
2022/04/17 11:55:13;;;;;;;1.13;1.13;;;;;;;;;;5025671;28;20288;-61
2022/04/17 11:58:00;;;;;;;1.37;1.37;;;;;;;;;;5016275;28;20280;-61
2022/04/17 12:00:55;;;;;;;1.20;1.20;;;;;;;;;;5017161;28;20240;-61
2022/04/17 12:03:46;;;;;;;1.30;1.30;;;;;;;;;;5018942;28;20207;-61
2022/04/17 12:06:34;;;;;;;1.37;1.30;;;;;;;;;;5019439;28;20214;-61
2022/04/17 12:09:21;;;;;;;1.40;1.30;;;;;;;;;;5020924;28;20217;-61
2022/04/17 12:12:11;;;;;;;1.43;1.37;;;;;;;;;;5020185;28;20686;-61
2022/04/17 12:15:00;;;;;;;2.60;1.83;;;;;;;;;;5020995;28;20216;-60
2022/04/17 12:17:57;;;;;;;1.60;1.50;;;;;;;;;;5020778;28;20235;-61
2022/04/17 12:20:54;;;;;;;2.53;1.90;;;;;;;;;;5019963;28;20316;-61
2022/04/17 12:23:41;;;;;;;2.43;2.23;;;;;;;;;;5021102;28;20676;-61
2022/04/17 12:26:28;;;;;;;2.87;2.30;;;;;;;;;;5022059;28;20615;-61
2022/04/17 12:29:16;;;;;;;2.60;2.40;;;;;;;;;;5020824;28;20210;-60
2022/04/17 12:32:03;;;;;;;4.47;3.10;;;;;;;;;;5017085;28;20238;-61
2022/04/17 12:34:58;;;;;;;6.43;3.50;;;;;;;;;;5024586;28;20219;-60
2022/04/17 12:37:46;;;;;;;3.80;3.30;;;;;;;;;;5016197;28;20294;-62
2022/04/17 12:40:39;;;;;;;7.70;3.60;;;;;;;;;;5018368;28;20200;-61
2022/04/17 12:43:29;;;;;;;5.70;3.33;;;;;;;;;;5024096;28;20594;-61
2022/04/17 12:46:25;;;;;;;5.43;3.50;;;;;;;;;;5020570;28;20212;-61
2022/04/17 12:49:14;;;;;;;5.83;3.70;;;;;;;;;;5022195;28;20299;-60
2022/04/17 12:52:01;;;;;;;4.57;3.47;;;;;;;;;;5023403;28;20195;-61
2022/04/17 12:54:49;;;;;;;5.27;3.27;;;;;;;;;;5018868;28;20298;-60
2022/04/17 12:57:37;;;;;;;5.20;3.37;;;;;;;;;;5020276;28;20233;-60
2022/04/17 13:00:25;;;;;;;5.47;3.77;;;;;;;;;;5015302;28;20221;-60
2022/04/17 13:03:15;;;;;;;4.63;3.30;;;;;;;;;;5022051;28;20225;-61
2022/04/17 13:06:04;;;;;;;4.17;3.70;;;;;;;;;;5020808;28;20212;-61
2022/04/17 13:09:10;;;;;;;4.23;3.10;;;;;;;;;;5017721;28;20281;-60
2022/04/17 13:11:59;;;;;;;4.07;2.90;;;;;;;;;;5018930;28;20384;-61
2022/04/17 13:14:56;;;;;;;4.67;3.23;;;;;;;;;;5021079;28;20299;-60
2022/04/17 13:17:46;;;;;;;3.27;2.60;;;;;;;;;;5017563;28;20232;-61
2022/04/17 13:20:34;;;;;;;3.30;2.63;;;;;;;;;;5017145;28;20207;-63
2022/04/17 13:23:21;;;;;;;4.37;2.93;;;;;;;;;;5016502;28;20483;-61
2022/04/17 13:26:08;;;;;;;2.70;2.50;;;;;;;;;;5015388;28;20244;-61
2022/04/17 13:28:56;;;;;;;4.37;3.20;;;;;;;;;;5015841;28;20231;-61
2022/04/17 13:31:44;;;;;;;4.20;3.00;;;;;;;;;;5021946;28;20683;-60
2022/04/17 13:34:33;;;;;;;3.47;2.63;;;;;;;;;;5023333;28;20230;-75
2022/04/17 13:40:25;;;;;;;3.10;2.77;;;;;;;;;;5020438;28;20220;-62
2022/04/17 13:43:12;;;;;;;3.63;2.63;;;;;;;;;;5022665;28;20227;-61
2022/04/17 13:46:00;;;;;;;3.50;2.83;;;;;;;;;;5019210;28;20380;-61
2022/04/17 13:48:47;;;;;;;2.80;2.30;;;;;;;;;;5019285;28;20247;-60
2022/04/17 13:51:34;;;;;;;3.33;2.70;;;;;;;;;;5021218;28;20255;-61
2022/04/17 13:54:20;;;;;;;2.53;2.33;;;;;;;;;;5019264;28;20298;-61
2022/04/17 13:57:07;;;;;;;3.13;2.20;;;;;;;;;;5018727;28;20391;-61
2022/04/17 13:59:55;;;;;;;2.23;2.13;;;;;;;;;;5020258;28;20675;-61
2022/04/17 14:02:43;;;;;;;2.57;2.37;;;;;;;;;;5016353;28;20213;-61
2022/04/17 14:05:30;;;;;;;2.37;2.27;;;;;;;;;;5013723;28;20208;-60
2022/04/17 14:08:17;;;;;;;2.23;2.00;;;;;;;;;;5016835;28;20204;-61
2022/04/17 14:11:04;;;;;;;2.20;2.03;;;;;;;;;;5025726;28;20306;-61
2022/04/17 14:13:51;;;;;;;1.73;1.63;;;;;;;;;;5021895;28;20295;-61
2022/04/17 14:16:38;;;;;;;1.97;1.87;;;;;;;;;;5024772;28;20264;-61
2022/04/17 14:19:26;;;;;;;1.97;1.87;;;;;;;;;;5022658;28;20266;-61
2022/04/17 14:22:13;;;;;;;2.03;1.83;;;;;;;;;;5025639;28;20212;-61
2022/04/17 14:25:00;;;;;;;1.83;1.73;;;;;;;;;;5021543;28;20215;-61
2022/04/17 14:27:47;;;;;;;1.60;1.50;;;;;;;;;;5025065;28;20288;-61
2022/04/17 14:30:34;;;;;;;2.00;1.73;;;;;;;;;;5023807;28;20295;-61
2022/04/17 14:33:21;;;;;;;2.10;1.47;;;;;;;;;;5025330;28;20238;-61
2022/04/17 14:36:09;;;;;;;1.60;1.50;;;;;;;;;;5024333;28;20553;-60
2022/04/17 14:38:56;;;;;;;1.57;1.47;;;;;;;;;;5024119;28;20314;-61
2022/04/17 14:41:44;;;;;;;2.10;1.60;;;;;;;;;;5025219;28;20636;-61
2022/04/17 14:44:31;;;;;;;1.53;1.37;;;;;;;;;;5028909;28;20214;-61
2022/04/17 14:47:18;;;;;;;1.63;1.53;;;;;;;;;;5019198;28;20239;-61
2022/04/17 14:50:05;;;;;;;1.80;1.70;;;;;;;;;;5024268;28;20809;-61
2022/04/17 14:52:54;;;;;;;1.40;1.30;;;;;;;;;;5021290;28;20845;-61
2022/04/17 14:55:41;;;;;;;1.47;1.37;;;;;;;;;;5019224;28;20209;-61
2022/04/17 14:58:29;;;;;;;1.50;1.40;;;;;;;;;;5021737;28;20261;-61
2022/04/17 15:01:16;;;;;;;1.30;1.20;;;;;;;;;;5021966;28;20275;-61
2022/04/17 15:04:03;;;;;;;1.50;1.37;;;;;;;;;;5022476;28;20679;-61
2022/04/17 15:06:50;;;;;;;1.00;1.00;;;;;;;;;;5021077;28;20207;-61
2022/04/17 15:09:38;;;;;;;2.10;1.13;;;;;;;;;;5023621;28;20304;-61
2022/04/17 15:12:25;;;;;;;1.40;1.30;;;;;;;;;;5019129;28;20300;-62
2022/04/17 15:15:12;;;;;;;1.40;1.30;;;;;;;;;;5023001;28;20252;-60
2022/04/17 15:17:59;;;;;;;1.00;1.00;;;;;;;;;;5015855;28;20231;-60
2022/04/17 15:20:46;;;;;;;1.10;1.10;;;;;;;;;;5021994;28;20260;-61
2022/04/17 15:23:33;;;;;;;0.90;0.90;;;;;;;;;;5022019;28;20237;-61
2022/04/17 15:26:21;;;;;;;1.23;1.20;;;;;;;;;;5023515;28;20825;-61
2022/04/17 15:29:10;;;;;;;0.93;0.93;;;;;;;;;;5021599;28;20292;-62
2022/04/17 15:31:57;;;;;;;0.87;0.87;;;;;;;;;;5023187;28;20214;-61
2022/04/17 15:34:44;;;;;;;0.90;0.90;;;;;;;;;;5022783;28;20702;-61
2022/04/17 15:37:32;;;;;;;0.97;0.97;;;;;;;;;;5020386;28;20230;-61
2022/04/17 15:40:19;;;;;;;1.37;1.27;;;;;;;;;;5023569;28;20205;-61
2022/04/17 15:49:13;;;;;;;0.80;0.80;;;;;;;;;;5021505;28;20211;-62
2022/04/17 15:52:00;;;;;;;1.00;1.00;;;;;;;;;;5024969;28;20708;-61
2022/04/17 15:54:47;;;;;;;1.10;1.00;;;;;;;;;;5015303;28;20315;-60
2022/04/17 15:57:35;;;;;;;0.63;0.63;;;;;;;;;;5021565;28;20229;-61
2022/04/17 16:00:23;;;;;;;0.90;0.90;;;;;;;;;;5017729;28;20209;-61
2022/04/17 16:03:10;;;;;;;1.00;1.00;;;;;;;;;;5022369;28;20295;-61
2022/04/17 16:05:57;;;;;;;1.23;1.13;;;;;;;;;;5016908;28;20632;-61
2022/04/17 16:08:44;;;;;;;0.93;0.70;;;;;;;;;;5025480;28;20327;-60
2022/04/17 16:11:30;;;;;;;1.00;1.00;;;;;;;;;;5023683;28;20284;-60
2022/04/17 16:14:17;;;;;;;0.93;0.93;;;;;;;;;;5027890;28;20216;-61
2022/04/17 16:17:06;;;;;;;0.73;0.73;;;;;;;;;;5022046;28;20262;-61
2022/04/17 16:19:53;;;;;;;0.90;0.90;;;;;;;;;;5023845;28;20329;-62
2022/04/17 16:22:40;;;;;;;0.80;0.80;;;;;;;;;;5017382;28;20586;-61
2022/04/17 16:25:27;;;;;;;1.00;1.00;;;;;;;;;;5022357;28;20686;-61
2022/04/17 16:28:14;;;;;;;0.80;0.80;;;;;;;;;;5025469;28;20343;-60
2022/04/17 16:31:01;;;;;;;0.77;0.77;;;;;;;;;;5021870;28;20627;-61
2022/04/17 16:33:49;;;;;;;0.70;0.70;;;;;;;;;;5019328;28;20291;-61
2022/04/17 16:36:37;;;;;;;1.00;1.00;;;;;;;;;;5025137;28;20299;-61
2022/04/17 16:39:24;;;;;;;0.90;0.90;;;;;;;;;;5021060;28;20239;-61
2022/04/17 16:42:11;;;;;;;0.80;0.80;;;;;;;;;;5027623;28;20219;-61
2022/04/17 16:44:59;;;;;;;0.80;0.80;;;;;;;;;;5022679;28;20249;-61
2022/04/17 16:47:45;;;;;;;0.93;0.93;;;;;;;;;;5020165;28;20232;-60
2022/04/17 16:50:34;;;;;;;1.20;0.90;;;;;;;;;;5019476;28;20248;-61
2022/04/17 16:53:23;;;;;;;0.83;0.83;;;;;;;;;;5019582;28;20241;-61
2022/04/17 16:56:10;;;;;;;0.80;0.80;;;;;;;;;;5017598;28;20243;-61
2022/04/17 16:59:15;;;;;;;1.60;1.13;;;;;;;;;;5019673;28;20388;-61
2022/04/17 17:02:03;;;;;;;0.90;0.90;;;;;;;;;;5021254;28;20277;-61
2022/04/17 17:04:50;;;;;;;1.07;0.97;;;;;;;;;;5021436;28;20772;-60
2022/04/17 17:07:38;;;;;;;1.03;1.03;;;;;;;;;;5016943;28;20287;-61